sensor_id;sensor_type;location;lat;lon;timestamp;P1;durP1;ratioP1;P2;durP2;ratioP2
10458;SDS011;5277;48.722;8.736;2022-12-18T00:00:43;35.67;;;16.77;;
10458;SDS011;5277;48.722;8.736;2022-12-18T00:03:13;32.80;;;16.00;;
10458;SDS011;5277;48.722;8.736;2022-12-18T00:05:57;33.57;;;15.53;;
10458;SDS011;5277;48.722;8.736;2022-12-18T00:08:43;33.20;;;14.93;;
10458;SDS011;5277;48.722;8.736;2022-12-18T00:11:20;29.63;;;14.67;;
10458;SDS011;5277;48.722;8.736;2022-12-18T00:20:01;27.63;;;14.17;;
10458;SDS011;5277;48.722;8.736;2022-12-18T00:22:26;29.73;;;14.47;;
10458;SDS011;5277;48.722;8.736;2022-12-18T00:24:52;29.17;;;15.63;;
10458;SDS011;5277;48.722;8.736;2022-12-18T00:27:18;33.03;;;14.93;;
10458;SDS011;5277;48.722;8.736;2022-12-18T00:29:43;32.73;;;14.97;;
10458;SDS011;5277;48.722;8.736;2022-12-18T00:32:09;27.13;;;14.07;;
10458;SDS011;5277;48.722;8.736;2022-12-18T00:34:35;28.77;;;14.63;;
10458;SDS011;5277;48.722;8.736;2022-12-18T00:37:00;30.20;;;14.50;;
10458;SDS011;5277;48.722;8.736;2022-12-18T00:39:26;30.73;;;13.80;;
10458;SDS011;5277;48.722;8.736;2022-12-18T00:41:52;27.23;;;14.23;;
10458;SDS011;5277;48.722;8.736;2022-12-18T00:44:36;30.93;;;14.43;;
10458;SDS011;5277;48.722;8.736;2022-12-18T00:47:01;28.03;;;14.53;;
10458;SDS011;5277;48.722;8.736;2022-12-18T00:49:27;32.27;;;14.30;;
10458;SDS011;5277;48.722;8.736;2022-12-18T00:51:53;35.70;;;16.57;;
10458;SDS011;5277;48.722;8.736;2022-12-18T00:54:18;28.33;;;14.90;;
10458;SDS011;5277;48.722;8.736;2022-12-18T00:56:44;27.47;;;14.03;;
10458;SDS011;5277;48.722;8.736;2022-12-18T00:59:10;31.10;;;14.00;;
10458;SDS011;5277;48.722;8.736;2022-12-18T01:01:35;30.33;;;15.07;;
10458;SDS011;5277;48.722;8.736;2022-12-18T01:04:01;25.70;;;13.53;;
10458;SDS011;5277;48.722;8.736;2022-12-18T01:06:30;32.10;;;15.13;;
10458;SDS011;5277;48.722;8.736;2022-12-18T01:08:56;29.60;;;14.33;;
10458;SDS011;5277;48.722;8.736;2022-12-18T01:11:25;34.83;;;15.10;;
10458;SDS011;5277;48.722;8.736;2022-12-18T01:13:51;28.97;;;14.60;;
10458;SDS011;5277;48.722;8.736;2022-12-18T01:16:30;34.47;;;15.77;;
10458;SDS011;5277;48.722;8.736;2022-12-18T01:25:42;31.50;;;14.33;;
10458;SDS011;5277;48.722;8.736;2022-12-18T01:31:55;28.60;;;14.63;;
10458;SDS011;5277;48.722;8.736;2022-12-18T01:34:53;29.83;;;13.97;;
10458;SDS011;5277;48.722;8.736;2022-12-18T01:38:16;30.67;;;13.83;;
10458;SDS011;5277;48.722;8.736;2022-12-18T01:40:47;30.10;;;14.80;;
10458;SDS011;5277;48.722;8.736;2022-12-18T01:43:18;31.20;;;14.53;;
10458;SDS011;5277;48.722;8.736;2022-12-18T01:45:55;29.77;;;14.70;;
10458;SDS011;5277;48.722;8.736;2022-12-18T01:48:34;30.73;;;14.70;;
10458;SDS011;5277;48.722;8.736;2022-12-18T01:51:30;32.10;;;14.43;;
10458;SDS011;5277;48.722;8.736;2022-12-18T01:53:58;28.13;;;14.60;;
10458;SDS011;5277;48.722;8.736;2022-12-18T01:56:34;33.40;;;15.37;;
10458;SDS011;5277;48.722;8.736;2022-12-18T01:59:03;32.27;;;14.57;;
10458;SDS011;5277;48.722;8.736;2022-12-18T02:04:26;30.20;;;15.17;;
10458;SDS011;5277;48.722;8.736;2022-12-18T02:14:00;31.63;;;14.00;;
10458;SDS011;5277;48.722;8.736;2022-12-18T02:17:31;29.67;;;13.23;;
10458;SDS011;5277;48.722;8.736;2022-12-18T02:20:40;32.50;;;14.27;;
10458;SDS011;5277;48.722;8.736;2022-12-18T02:27:08;31.33;;;13.30;;
10458;SDS011;5277;48.722;8.736;2022-12-18T02:29:41;29.97;;;14.37;;
10458;SDS011;5277;48.722;8.736;2022-12-18T02:32:22;31.93;;;13.93;;
10458;SDS011;5277;48.722;8.736;2022-12-18T02:35:03;26.73;;;13.23;;
10458;SDS011;5277;48.722;8.736;2022-12-18T02:37:33;30.77;;;14.43;;
10458;SDS011;5277;48.722;8.736;2022-12-18T02:40:16;32.70;;;15.33;;
10458;SDS011;5277;48.722;8.736;2022-12-18T02:43:11;28.50;;;13.93;;
10458;SDS011;5277;48.722;8.736;2022-12-18T02:52:01;27.30;;;13.67;;
10458;SDS011;5277;48.722;8.736;2022-12-18T02:57:54;28.07;;;12.80;;
10458;SDS011;5277;48.722;8.736;2022-12-18T03:03:34;29.90;;;14.63;;
10458;SDS011;5277;48.722;8.736;2022-12-18T03:06:29;29.00;;;14.17;;
10458;SDS011;5277;48.722;8.736;2022-12-18T03:09:01;29.77;;;13.80;;
10458;SDS011;5277;48.722;8.736;2022-12-18T03:11:53;32.13;;;13.80;;
10458;SDS011;5277;48.722;8.736;2022-12-18T03:14:47;26.43;;;13.47;;
10458;SDS011;5277;48.722;8.736;2022-12-18T03:17:39;27.10;;;13.00;;
10458;SDS011;5277;48.722;8.736;2022-12-18T03:20:17;27.87;;;13.87;;
10458;SDS011;5277;48.722;8.736;2022-12-18T03:22:55;26.60;;;13.27;;
10458;SDS011;5277;48.722;8.736;2022-12-18T03:25:28;27.20;;;12.67;;
10458;SDS011;5277;48.722;8.736;2022-12-18T03:28:02;24.70;;;13.17;;
10458;SDS011;5277;48.722;8.736;2022-12-18T03:33:35;24.07;;;12.67;;
10458;SDS011;5277;48.722;8.736;2022-12-18T03:36:30;26.00;;;13.43;;
10458;SDS011;5277;48.722;8.736;2022-12-18T03:38:59;25.83;;;13.47;;
10458;SDS011;5277;48.722;8.736;2022-12-18T03:41:41;27.07;;;13.10;;
10458;SDS011;5277;48.722;8.736;2022-12-18T03:47:12;24.60;;;12.97;;
10458;SDS011;5277;48.722;8.736;2022-12-18T03:49:46;27.67;;;12.77;;
10458;SDS011;5277;48.722;8.736;2022-12-18T03:52:28;24.27;;;11.97;;
10458;SDS011;5277;48.722;8.736;2022-12-18T03:55:00;26.40;;;12.73;;
10458;SDS011;5277;48.722;8.736;2022-12-18T03:57:28;24.80;;;12.63;;
10458;SDS011;5277;48.722;8.736;2022-12-18T03:59:57;25.50;;;12.23;;
10458;SDS011;5277;48.722;8.736;2022-12-18T04:02:27;23.90;;;12.33;;
10458;SDS011;5277;48.722;8.736;2022-12-18T04:04:58;24.67;;;12.40;;
10458;SDS011;5277;48.722;8.736;2022-12-18T04:07:27;25.87;;;12.50;;
10458;SDS011;5277;48.722;8.736;2022-12-18T04:09:56;25.20;;;11.67;;
10458;SDS011;5277;48.722;8.736;2022-12-18T04:12:26;24.77;;;11.53;;
10458;SDS011;5277;48.722;8.736;2022-12-18T04:14:56;26.43;;;11.93;;
10458;SDS011;5277;48.722;8.736;2022-12-18T04:17:22;24.70;;;12.23;;
10458;SDS011;5277;48.722;8.736;2022-12-18T04:19:53;25.47;;;11.73;;
10458;SDS011;5277;48.722;8.736;2022-12-18T04:22:19;27.17;;;11.77;;
10458;SDS011;5277;48.722;8.736;2022-12-18T04:24:50;23.57;;;11.90;;
10458;SDS011;5277;48.722;8.736;2022-12-18T04:27:28;26.20;;;12.30;;
10458;SDS011;5277;48.722;8.736;2022-12-18T04:30:08;24.53;;;12.80;;
10458;SDS011;5277;48.722;8.736;2022-12-18T04:33:11;22.27;;;10.93;;
10458;SDS011;5277;48.722;8.736;2022-12-18T04:35:47;22.03;;;11.50;;
10458;SDS011;5277;48.722;8.736;2022-12-18T04:38:16;22.33;;;11.30;;
10458;SDS011;5277;48.722;8.736;2022-12-18T04:40:47;20.73;;;11.87;;
10458;SDS011;5277;48.722;8.736;2022-12-18T04:43:16;23.23;;;11.33;;
10458;SDS011;5277;48.722;8.736;2022-12-18T04:45:47;27.43;;;12.57;;
10458;SDS011;5277;48.722;8.736;2022-12-18T04:48:30;28.67;;;12.70;;
10458;SDS011;5277;48.722;8.736;2022-12-18T04:51:21;21.17;;;11.43;;
10458;SDS011;5277;48.722;8.736;2022-12-18T04:53:50;24.77;;;12.13;;
10458;SDS011;5277;48.722;8.736;2022-12-18T04:56:29;24.17;;;12.07;;
10458;SDS011;5277;48.722;8.736;2022-12-18T04:59:11;22.20;;;11.50;;
10458;SDS011;5277;48.722;8.736;2022-12-18T05:01:36;22.60;;;11.97;;
10458;SDS011;5277;48.722;8.736;2022-12-18T05:04:02;24.00;;;11.90;;
10458;SDS011;5277;48.722;8.736;2022-12-18T05:06:28;25.67;;;11.97;;
10458;SDS011;5277;48.722;8.736;2022-12-18T05:08:53;25.67;;;12.57;;
10458;SDS011;5277;48.722;8.736;2022-12-18T05:11:19;25.60;;;11.67;;
10458;SDS011;5277;48.722;8.736;2022-12-18T05:13:44;28.00;;;12.27;;
10458;SDS011;5277;48.722;8.736;2022-12-18T05:16:10;24.27;;;11.47;;
10458;SDS011;5277;48.722;8.736;2022-12-18T05:18:36;26.53;;;12.13;;
10458;SDS011;5277;48.722;8.736;2022-12-18T05:21:02;25.53;;;12.67;;
10458;SDS011;5277;48.722;8.736;2022-12-18T05:23:29;24.57;;;12.47;;
10458;SDS011;5277;48.722;8.736;2022-12-18T05:25:59;26.57;;;12.87;;
10458;SDS011;5277;48.722;8.736;2022-12-18T05:28:27;22.90;;;12.03;;
10458;SDS011;5277;48.722;8.736;2022-12-18T05:30:55;24.30;;;11.53;;
10458;SDS011;5277;48.722;8.736;2022-12-18T05:33:22;23.83;;;11.83;;
10458;SDS011;5277;48.722;8.736;2022-12-18T05:35:53;27.30;;;13.33;;
10458;SDS011;5277;48.722;8.736;2022-12-18T05:38:20;25.37;;;13.17;;
10458;SDS011;5277;48.722;8.736;2022-12-18T05:40:47;33.00;;;15.00;;
10458;SDS011;5277;48.722;8.736;2022-12-18T05:43:13;31.97;;;14.37;;
10458;SDS011;5277;48.722;8.736;2022-12-18T05:45:39;24.40;;;12.77;;
10458;SDS011;5277;48.722;8.736;2022-12-18T05:48:06;27.13;;;13.43;;
10458;SDS011;5277;48.722;8.736;2022-12-18T05:50:39;26.87;;;13.13;;
10458;SDS011;5277;48.722;8.736;2022-12-18T05:53:06;31.43;;;14.03;;
10458;SDS011;5277;48.722;8.736;2022-12-18T05:55:32;27.37;;;13.63;;
10458;SDS011;5277;48.722;8.736;2022-12-18T05:57:59;25.53;;;12.63;;
10458;SDS011;5277;48.722;8.736;2022-12-18T06:00:25;31.07;;;14.20;;
10458;SDS011;5277;48.722;8.736;2022-12-18T06:02:53;25.97;;;13.93;;
10458;SDS011;5277;48.722;8.736;2022-12-18T06:05:22;29.43;;;13.93;;
10458;SDS011;5277;48.722;8.736;2022-12-18T06:07:51;27.63;;;14.13;;
10458;SDS011;5277;48.722;8.736;2022-12-18T06:10:17;26.27;;;13.60;;
10458;SDS011;5277;48.722;8.736;2022-12-18T06:12:49;32.40;;;13.67;;
10458;SDS011;5277;48.722;8.736;2022-12-18T06:15:17;24.80;;;12.73;;
10458;SDS011;5277;48.722;8.736;2022-12-18T06:17:52;23.07;;;12.23;;
10458;SDS011;5277;48.722;8.736;2022-12-18T06:20:20;28.67;;;13.80;;
10458;SDS011;5277;48.722;8.736;2022-12-18T06:22:49;28.03;;;13.63;;
10458;SDS011;5277;48.722;8.736;2022-12-18T06:25:15;25.03;;;13.77;;
10458;SDS011;5277;48.722;8.736;2022-12-18T06:27:47;28.17;;;13.60;;
10458;SDS011;5277;48.722;8.736;2022-12-18T06:30:14;29.30;;;12.50;;
10458;SDS011;5277;48.722;8.736;2022-12-18T06:32:42;25.33;;;12.87;;
10458;SDS011;5277;48.722;8.736;2022-12-18T06:35:08;27.70;;;13.43;;
10458;SDS011;5277;48.722;8.736;2022-12-18T06:37:34;27.37;;;13.30;;
10458;SDS011;5277;48.722;8.736;2022-12-18T06:39:59;30.30;;;13.13;;
10458;SDS011;5277;48.722;8.736;2022-12-18T06:42:25;23.23;;;12.20;;
10458;SDS011;5277;48.722;8.736;2022-12-18T06:44:51;23.17;;;12.47;;
10458;SDS011;5277;48.722;8.736;2022-12-18T06:47:17;26.37;;;12.23;;
10458;SDS011;5277;48.722;8.736;2022-12-18T06:49:43;25.27;;;13.00;;
10458;SDS011;5277;48.722;8.736;2022-12-18T06:52:09;24.27;;;12.87;;
10458;SDS011;5277;48.722;8.736;2022-12-18T06:54:34;23.93;;;12.70;;
10458;SDS011;5277;48.722;8.736;2022-12-18T06:57:00;26.47;;;12.73;;
10458;SDS011;5277;48.722;8.736;2022-12-18T06:59:25;29.33;;;13.83;;
10458;SDS011;5277;48.722;8.736;2022-12-18T07:01:51;29.03;;;13.40;;
10458;SDS011;5277;48.722;8.736;2022-12-18T07:04:16;29.40;;;13.20;;
10458;SDS011;5277;48.722;8.736;2022-12-18T07:06:42;28.17;;;13.57;;
10458;SDS011;5277;48.722;8.736;2022-12-18T07:09:08;27.23;;;13.80;;
10458;SDS011;5277;48.722;8.736;2022-12-18T07:11:33;31.20;;;12.83;;
10458;SDS011;5277;48.722;8.736;2022-12-18T07:13:59;29.17;;;14.20;;
10458;SDS011;5277;48.722;8.736;2022-12-18T07:16:25;25.67;;;12.80;;
10458;SDS011;5277;48.722;8.736;2022-12-18T07:18:51;28.17;;;13.73;;
10458;SDS011;5277;48.722;8.736;2022-12-18T07:21:18;26.87;;;12.53;;
10458;SDS011;5277;48.722;8.736;2022-12-18T07:23:45;26.20;;;13.50;;
10458;SDS011;5277;48.722;8.736;2022-12-18T07:26:12;26.03;;;13.23;;
10458;SDS011;5277;48.722;8.736;2022-12-18T07:28:40;25.37;;;13.10;;
10458;SDS011;5277;48.722;8.736;2022-12-18T07:31:07;31.47;;;13.43;;
10458;SDS011;5277;48.722;8.736;2022-12-18T07:33:37;28.53;;;14.40;;
10458;SDS011;5277;48.722;8.736;2022-12-18T07:36:04;25.47;;;13.83;;
10458;SDS011;5277;48.722;8.736;2022-12-18T07:38:31;28.07;;;14.40;;
10458;SDS011;5277;48.722;8.736;2022-12-18T07:41:02;28.57;;;15.03;;
10458;SDS011;5277;48.722;8.736;2022-12-18T07:43:35;28.90;;;13.63;;
10458;SDS011;5277;48.722;8.736;2022-12-18T07:46:01;29.80;;;14.50;;
10458;SDS011;5277;48.722;8.736;2022-12-18T07:48:27;25.60;;;12.93;;
10458;SDS011;5277;48.722;8.736;2022-12-18T07:50:53;30.53;;;14.27;;
10458;SDS011;5277;48.722;8.736;2022-12-18T07:53:22;29.40;;;14.07;;
10458;SDS011;5277;48.722;8.736;2022-12-18T07:55:48;35.73;;;15.40;;
10458;SDS011;5277;48.722;8.736;2022-12-18T07:58:13;28.87;;;13.83;;
10458;SDS011;5277;48.722;8.736;2022-12-18T08:00:39;27.30;;;13.70;;
10458;SDS011;5277;48.722;8.736;2022-12-18T08:03:04;27.77;;;14.07;;
10458;SDS011;5277;48.722;8.736;2022-12-18T08:05:30;28.27;;;13.83;;
10458;SDS011;5277;48.722;8.736;2022-12-18T08:07:56;34.33;;;15.13;;
10458;SDS011;5277;48.722;8.736;2022-12-18T08:10:23;32.77;;;15.97;;
10458;SDS011;5277;48.722;8.736;2022-12-18T08:12:49;35.03;;;15.60;;
10458;SDS011;5277;48.722;8.736;2022-12-18T08:15:16;31.50;;;14.63;;
10458;SDS011;5277;48.722;8.736;2022-12-18T08:17:42;27.23;;;13.83;;
10458;SDS011;5277;48.722;8.736;2022-12-18T08:20:07;30.93;;;15.07;;
10458;SDS011;5277;48.722;8.736;2022-12-18T08:22:34;32.73;;;15.13;;
10458;SDS011;5277;48.722;8.736;2022-12-18T08:25:00;30.10;;;14.43;;
10458;SDS011;5277;48.722;8.736;2022-12-18T08:27:26;29.00;;;14.30;;
10458;SDS011;5277;48.722;8.736;2022-12-18T08:29:52;30.03;;;15.07;;
10458;SDS011;5277;48.722;8.736;2022-12-18T08:32:17;34.50;;;16.47;;
10458;SDS011;5277;48.722;8.736;2022-12-18T08:34:43;29.50;;;14.13;;
10458;SDS011;5277;48.722;8.736;2022-12-18T08:37:08;29.53;;;14.93;;
10458;SDS011;5277;48.722;8.736;2022-12-18T08:39:34;33.27;;;15.57;;
10458;SDS011;5277;48.722;8.736;2022-12-18T08:41:59;30.40;;;15.07;;
10458;SDS011;5277;48.722;8.736;2022-12-18T08:44:43;33.83;;;15.57;;
10458;SDS011;5277;48.722;8.736;2022-12-18T08:47:09;30.23;;;15.20;;
10458;SDS011;5277;48.722;8.736;2022-12-18T08:49:35;33.53;;;15.50;;
10458;SDS011;5277;48.722;8.736;2022-12-18T08:52:00;33.03;;;16.50;;
10458;SDS011;5277;48.722;8.736;2022-12-18T08:54:27;30.10;;;16.77;;
10458;SDS011;5277;48.722;8.736;2022-12-18T08:56:53;32.10;;;15.80;;
10458;SDS011;5277;48.722;8.736;2022-12-18T08:59:19;32.53;;;15.83;;
10458;SDS011;5277;48.722;8.736;2022-12-18T09:01:45;35.77;;;16.70;;
10458;SDS011;5277;48.722;8.736;2022-12-18T09:04:11;32.47;;;15.23;;
10458;SDS011;5277;48.722;8.736;2022-12-18T09:06:38;29.13;;;15.10;;
10458;SDS011;5277;48.722;8.736;2022-12-18T09:09:04;32.97;;;16.03;;
10458;SDS011;5277;48.722;8.736;2022-12-18T09:11:30;33.93;;;16.47;;
10458;SDS011;5277;48.722;8.736;2022-12-18T09:13:57;32.80;;;16.27;;
10458;SDS011;5277;48.722;8.736;2022-12-18T09:16:25;37.63;;;17.20;;
10458;SDS011;5277;48.722;8.736;2022-12-18T09:18:53;34.30;;;16.70;;
10458;SDS011;5277;48.722;8.736;2022-12-18T09:21:25;34.37;;;16.20;;
10458;SDS011;5277;48.722;8.736;2022-12-18T09:23:53;38.23;;;17.40;;
10458;SDS011;5277;48.722;8.736;2022-12-18T09:26:20;38.97;;;17.80;;
10458;SDS011;5277;48.722;8.736;2022-12-18T09:28:46;39.77;;;18.50;;
10458;SDS011;5277;48.722;8.736;2022-12-18T09:31:12;40.60;;;18.70;;
10458;SDS011;5277;48.722;8.736;2022-12-18T09:33:39;40.87;;;18.63;;
10458;SDS011;5277;48.722;8.736;2022-12-18T09:36:06;40.77;;;18.07;;
10458;SDS011;5277;48.722;8.736;2022-12-18T09:38:34;39.63;;;18.67;;
10458;SDS011;5277;48.722;8.736;2022-12-18T09:41:04;41.37;;;18.90;;
10458;SDS011;5277;48.722;8.736;2022-12-18T09:43:47;42.00;;;18.90;;
10458;SDS011;5277;48.722;8.736;2022-12-18T09:46:17;45.70;;;20.93;;
10458;SDS011;5277;48.722;8.736;2022-12-18T09:48:51;41.83;;;19.13;;
10458;SDS011;5277;48.722;8.736;2022-12-18T09:51:21;38.17;;;18.50;;
10458;SDS011;5277;48.722;8.736;2022-12-18T09:53:51;44.30;;;20.97;;
10458;SDS011;5277;48.722;8.736;2022-12-18T09:56:22;36.77;;;18.20;;
10458;SDS011;5277;48.722;8.736;2022-12-18T09:58:57;37.20;;;17.63;;
10458;SDS011;5277;48.722;8.736;2022-12-18T10:01:24;37.77;;;18.43;;
10458;SDS011;5277;48.722;8.736;2022-12-18T10:03:52;44.67;;;19.63;;
10458;SDS011;5277;48.722;8.736;2022-12-18T10:06:20;40.90;;;19.03;;
10458;SDS011;5277;48.722;8.736;2022-12-18T10:08:54;42.17;;;19.67;;
10458;SDS011;5277;48.722;8.736;2022-12-18T10:11:43;40.10;;;18.97;;
10458;SDS011;5277;48.722;8.736;2022-12-18T10:14:16;36.10;;;17.40;;
10458;SDS011;5277;48.722;8.736;2022-12-18T10:20:05;41.57;;;19.23;;
10458;SDS011;5277;48.722;8.736;2022-12-18T10:25:18;41.10;;;18.30;;
10458;SDS011;5277;48.722;8.736;2022-12-18T10:27:52;40.17;;;18.17;;
10458;SDS011;5277;48.722;8.736;2022-12-18T10:30:21;38.50;;;19.67;;
10458;SDS011;5277;48.722;8.736;2022-12-18T10:32:49;37.60;;;17.77;;
10458;SDS011;5277;48.722;8.736;2022-12-18T10:35:17;45.17;;;21.07;;
10458;SDS011;5277;48.722;8.736;2022-12-18T10:40:55;39.00;;;19.20;;
10458;SDS011;5277;48.722;8.736;2022-12-18T10:43:26;38.70;;;17.70;;
10458;SDS011;5277;48.722;8.736;2022-12-18T10:48:28;42.77;;;19.17;;
10458;SDS011;5277;48.722;8.736;2022-12-18T10:50:55;40.90;;;20.03;;
10458;SDS011;5277;48.722;8.736;2022-12-18T10:53:23;39.00;;;19.33;;
10458;SDS011;5277;48.722;8.736;2022-12-18T10:55:51;38.13;;;19.07;;
10458;SDS011;5277;48.722;8.736;2022-12-18T10:58:28;41.00;;;19.37;;
10458;SDS011;5277;48.722;8.736;2022-12-18T11:03:29;45.23;;;21.53;;
10458;SDS011;5277;48.722;8.736;2022-12-18T11:06:07;39.33;;;19.00;;
10458;SDS011;5277;48.722;8.736;2022-12-18T11:08:37;40.50;;;18.77;;
10458;SDS011;5277;48.722;8.736;2022-12-18T11:11:04;39.43;;;18.50;;
10458;SDS011;5277;48.722;8.736;2022-12-18T11:13:41;40.37;;;18.90;;
10458;SDS011;5277;48.722;8.736;2022-12-18T11:16:20;41.20;;;19.80;;
10458;SDS011;5277;48.722;8.736;2022-12-18T11:18:46;40.90;;;19.67;;
10458;SDS011;5277;48.722;8.736;2022-12-18T11:21:11;41.83;;;19.77;;
10458;SDS011;5277;48.722;8.736;2022-12-18T11:23:45;41.57;;;20.33;;
10458;SDS011;5277;48.722;8.736;2022-12-18T11:26:14;41.60;;;19.83;;
10458;SDS011;5277;48.722;8.736;2022-12-18T11:33:52;40.83;;;19.93;;
10458;SDS011;5277;48.722;8.736;2022-12-18T11:36:38;42.97;;;19.87;;
10458;SDS011;5277;48.722;8.736;2022-12-18T11:39:15;39.57;;;19.40;;
10458;SDS011;5277;48.722;8.736;2022-12-18T11:44:50;45.47;;;20.77;;
10458;SDS011;5277;48.722;8.736;2022-12-18T11:50:14;44.20;;;20.97;;
10458;SDS011;5277;48.722;8.736;2022-12-18T11:52:43;42.10;;;21.17;;
10458;SDS011;5277;48.722;8.736;2022-12-18T11:55:13;43.73;;;21.40;;
10458;SDS011;5277;48.722;8.736;2022-12-18T12:15:01;47.00;;;22.10;;
10458;SDS011;5277;48.722;8.736;2022-12-18T12:20:56;44.30;;;20.83;;
10458;SDS011;5277;48.722;8.736;2022-12-18T12:26:16;38.97;;;19.63;;
10458;SDS011;5277;48.722;8.736;2022-12-18T12:29:10;40.97;;;21.10;;
10458;SDS011;5277;48.722;8.736;2022-12-18T12:34:34;44.83;;;21.37;;
10458;SDS011;5277;48.722;8.736;2022-12-18T12:37:18;42.23;;;21.57;;
10458;SDS011;5277;48.722;8.736;2022-12-18T12:39:51;42.73;;;21.57;;
10458;SDS011;5277;48.722;8.736;2022-12-18T12:45:30;43.53;;;20.57;;
10458;SDS011;5277;48.722;8.736;2022-12-18T12:48:01;41.90;;;21.53;;
10458;SDS011;5277;48.722;8.736;2022-12-18T12:50:30;46.03;;;22.07;;
10458;SDS011;5277;48.722;8.736;2022-12-18T12:52:59;43.47;;;21.20;;
10458;SDS011;5277;48.722;8.736;2022-12-18T12:55:28;43.27;;;21.07;;
10458;SDS011;5277;48.722;8.736;2022-12-18T12:58:11;44.17;;;21.57;;
10458;SDS011;5277;48.722;8.736;2022-12-18T13:06:23;41.37;;;21.77;;
10458;SDS011;5277;48.722;8.736;2022-12-18T13:09:07;40.00;;;21.90;;
10458;SDS011;5277;48.722;8.736;2022-12-18T13:11:43;46.47;;;22.93;;
10458;SDS011;5277;48.722;8.736;2022-12-18T13:17:16;40.30;;;20.63;;
10458;SDS011;5277;48.722;8.736;2022-12-18T13:19:42;42.47;;;20.90;;
10458;SDS011;5277;48.722;8.736;2022-12-18T13:22:30;46.73;;;22.80;;
10458;SDS011;5277;48.722;8.736;2022-12-18T13:24:59;43.53;;;21.00;;
10458;SDS011;5277;48.722;8.736;2022-12-18T13:40:57;47.20;;;23.10;;
10458;SDS011;5277;48.722;8.736;2022-12-18T13:43:26;48.30;;;22.53;;
10458;SDS011;5277;48.722;8.736;2022-12-18T13:46:04;43.30;;;21.70;;
10458;SDS011;5277;48.722;8.736;2022-12-18T13:48:31;43.37;;;21.70;;
10458;SDS011;5277;48.722;8.736;2022-12-18T13:51:01;49.13;;;23.67;;
10458;SDS011;5277;48.722;8.736;2022-12-18T13:53:30;45.00;;;22.37;;
10458;SDS011;5277;48.722;8.736;2022-12-18T13:56:04;42.23;;;21.63;;
10458;SDS011;5277;48.722;8.736;2022-12-18T13:58:30;44.83;;;22.77;;
10458;SDS011;5277;48.722;8.736;2022-12-18T14:00:56;46.57;;;23.23;;
10458;SDS011;5277;48.722;8.736;2022-12-18T14:03:25;45.97;;;23.93;;
10458;SDS011;5277;48.722;8.736;2022-12-18T14:05:53;52.60;;;25.33;;
10458;SDS011;5277;48.722;8.736;2022-12-18T14:08:38;52.63;;;23.77;;
10458;SDS011;5277;48.722;8.736;2022-12-18T14:11:05;47.57;;;23.20;;
10458;SDS011;5277;48.722;8.736;2022-12-18T14:13:36;50.30;;;23.70;;
10458;SDS011;5277;48.722;8.736;2022-12-18T14:16:06;49.67;;;24.33;;
10458;SDS011;5277;48.722;8.736;2022-12-18T14:18:42;42.90;;;22.00;;
10458;SDS011;5277;48.722;8.736;2022-12-18T14:21:15;52.60;;;23.87;;
10458;SDS011;5277;48.722;8.736;2022-12-18T14:23:48;52.00;;;24.37;;
10458;SDS011;5277;48.722;8.736;2022-12-18T14:26:28;47.13;;;22.73;;
10458;SDS011;5277;48.722;8.736;2022-12-18T14:28:56;47.57;;;23.43;;
10458;SDS011;5277;48.722;8.736;2022-12-18T14:31:24;42.73;;;21.97;;
10458;SDS011;5277;48.722;8.736;2022-12-18T14:33:51;47.73;;;23.70;;
10458;SDS011;5277;48.722;8.736;2022-12-18T14:36:18;49.53;;;24.47;;
10458;SDS011;5277;48.722;8.736;2022-12-18T14:38:49;47.03;;;23.27;;
10458;SDS011;5277;48.722;8.736;2022-12-18T14:41:16;49.10;;;24.03;;
10458;SDS011;5277;48.722;8.736;2022-12-18T14:43:44;42.77;;;21.83;;
10458;SDS011;5277;48.722;8.736;2022-12-18T14:49:04;46.70;;;22.40;;
10458;SDS011;5277;48.722;8.736;2022-12-18T14:51:53;44.87;;;22.77;;
10458;SDS011;5277;48.722;8.736;2022-12-18T14:54:21;48.10;;;23.80;;
10458;SDS011;5277;48.722;8.736;2022-12-18T14:56:51;48.73;;;23.27;;
10458;SDS011;5277;48.722;8.736;2022-12-18T14:59:38;46.70;;;23.20;;
10458;SDS011;5277;48.722;8.736;2022-12-18T15:05:14;44.37;;;22.30;;
10458;SDS011;5277;48.722;8.736;2022-12-18T15:07:47;49.83;;;22.77;;
10458;SDS011;5277;48.722;8.736;2022-12-18T15:10:19;49.17;;;23.30;;
10458;SDS011;5277;48.722;8.736;2022-12-18T15:12:48;50.07;;;24.07;;
10458;SDS011;5277;48.722;8.736;2022-12-18T15:18:05;48.97;;;24.80;;
10458;SDS011;5277;48.722;8.736;2022-12-18T15:20:42;50.27;;;22.13;;
10458;SDS011;5277;48.722;8.736;2022-12-18T15:23:58;50.90;;;24.17;;
10458;SDS011;5277;48.722;8.736;2022-12-18T15:26:13;53.43;;;24.40;;
10458;SDS011;5277;48.722;8.736;2022-12-18T15:28:56;51.27;;;24.43;;
10458;SDS011;5277;48.722;8.736;2022-12-18T15:36:21;52.47;;;23.47;;
10458;SDS011;5277;48.722;8.736;2022-12-18T15:38:52;56.60;;;25.17;;
10458;SDS011;5277;48.722;8.736;2022-12-18T15:41:19;53.70;;;25.20;;
10458;SDS011;5277;48.722;8.736;2022-12-18T15:43:47;60.27;;;26.00;;
10458;SDS011;5277;48.722;8.736;2022-12-18T15:46:15;56.03;;;24.97;;
10458;SDS011;5277;48.722;8.736;2022-12-18T15:48:47;52.73;;;22.50;;
10458;SDS011;5277;48.722;8.736;2022-12-18T15:51:19;57.77;;;25.70;;
10458;SDS011;5277;48.722;8.736;2022-12-18T15:53:58;50.97;;;22.70;;
10458;SDS011;5277;48.722;8.736;2022-12-18T15:56:25;48.63;;;23.37;;
10458;SDS011;5277;48.722;8.736;2022-12-18T15:59:10;56.27;;;24.50;;
10458;SDS011;5277;48.722;8.736;2022-12-18T16:01:37;60.87;;;25.60;;
10458;SDS011;5277;48.722;8.736;2022-12-18T16:04:03;58.83;;;25.27;;
10458;SDS011;5277;48.722;8.736;2022-12-18T16:06:28;61.13;;;28.07;;
10458;SDS011;5277;48.722;8.736;2022-12-18T16:08:54;55.73;;;26.10;;
10458;SDS011;5277;48.722;8.736;2022-12-18T16:11:24;63.43;;;27.40;;
10458;SDS011;5277;48.722;8.736;2022-12-18T16:14:21;50.80;;;24.77;;
10458;SDS011;5277;48.722;8.736;2022-12-18T16:16:52;57.37;;;26.07;;
10458;SDS011;5277;48.722;8.736;2022-12-18T16:19:20;56.90;;;26.03;;
10458;SDS011;5277;48.722;8.736;2022-12-18T16:21:47;55.67;;;25.57;;
10458;SDS011;5277;48.722;8.736;2022-12-18T16:24:21;60.13;;;27.53;;
10458;SDS011;5277;48.722;8.736;2022-12-18T16:26:48;64.40;;;28.20;;
10458;SDS011;5277;48.722;8.736;2022-12-18T16:29:16;62.80;;;27.30;;
10458;SDS011;5277;48.722;8.736;2022-12-18T16:31:42;54.63;;;25.73;;
10458;SDS011;5277;48.722;8.736;2022-12-18T16:34:18;59.60;;;26.80;;
10458;SDS011;5277;48.722;8.736;2022-12-18T16:36:51;61.30;;;27.17;;
10458;SDS011;5277;48.722;8.736;2022-12-18T16:39:18;58.63;;;25.87;;
10458;SDS011;5277;48.722;8.736;2022-12-18T16:41:44;65.07;;;28.03;;
10458;SDS011;5277;48.722;8.736;2022-12-18T16:44:11;57.67;;;26.90;;
10458;SDS011;5277;48.722;8.736;2022-12-18T16:46:37;60.03;;;26.47;;
10458;SDS011;5277;48.722;8.736;2022-12-18T16:49:03;56.90;;;27.57;;
10458;SDS011;5277;48.722;8.736;2022-12-18T16:51:29;57.33;;;27.00;;
10458;SDS011;5277;48.722;8.736;2022-12-18T16:53:56;58.07;;;26.03;;
10458;SDS011;5277;48.722;8.736;2022-12-18T16:56:21;54.00;;;25.23;;
10458;SDS011;5277;48.722;8.736;2022-12-18T16:58:49;53.27;;;25.80;;
10458;SDS011;5277;48.722;8.736;2022-12-18T17:01:15;57.43;;;25.67;;
10458;SDS011;5277;48.722;8.736;2022-12-18T17:03:41;58.53;;;26.30;;
10458;SDS011;5277;48.722;8.736;2022-12-18T17:06:07;59.73;;;26.73;;
10458;SDS011;5277;48.722;8.736;2022-12-18T17:08:32;58.53;;;26.00;;
10458;SDS011;5277;48.722;8.736;2022-12-18T17:11:05;54.70;;;25.80;;
10458;SDS011;5277;48.722;8.736;2022-12-18T17:13:32;47.20;;;24.30;;
10458;SDS011;5277;48.722;8.736;2022-12-18T17:16:07;51.03;;;24.90;;